Terminal Aerodrome Forecast
Issued by NWS Cleveland, OH

Home | Current Version | Previous Version | Text Only | Print | Product List | Glossary On
Versions: 1 2 3 4 5 6 7 8 9 10 11 12 13 14 15 16 17 18 19 20 21 22 23 24
000
FTUS41 KCLE 241137
TAFERI
TAF
KERI 241137Z 2412/2512 03008KT P6SM SCT015 OVC025
     FM241600 06008KT P6SM VCSH OVC025
     FM241900 09008KT P6SM OVC035
     FM250200 12014G24KT 4SM -RA BR OVC015
     FM250700 16020G32KT 3SM -RA BR OVC005=

USA.gov is the U.S. government's official web portal to all federal, state and local government web resources and services.